sensor_id;sensor_type;location;lat;lon;timestamp;pressure;altitude;pressure_sealevel;temperature;humidity
75312;BME280;63906;55.686;37.532;2022-11-02T00:02:00;99321.38;;;3.24;69.06
75312;BME280;63906;55.686;37.532;2022-11-02T00:07:19;99293.88;;;3.04;66.90
75312;BME280;63906;55.686;37.532;2022-11-02T00:12:38;99307.25;;;3.09;68.16
75312;BME280;63906;55.686;37.532;2022-11-02T00:18:03;99285.13;;;3.05;68.63
75312;BME280;63906;55.686;37.532;2022-11-02T00:23:23;99305.53;;;3.18;68.06
75312;BME280;63906;55.686;37.532;2022-11-02T00:28:42;99305.97;;;3.13;67.45
75312;BME280;63906;55.686;37.532;2022-11-02T00:34:01;99304.34;;;3.12;67.79
75312;BME280;63906;55.686;37.532;2022-11-02T00:39:21;99303.66;;;3.10;68.31
75312;BME280;63906;55.686;37.532;2022-11-02T00:44:40;99284.66;;;3.10;67.85
75312;BME280;63906;55.686;37.532;2022-11-02T00:49:59;99292.38;;;3.19;67.80
75312;BME280;63906;55.686;37.532;2022-11-02T00:55:18;99303.16;;;3.24;68.04
75312;BME280;63906;55.686;37.532;2022-11-02T01:00:38;99299.94;;;3.31;68.14
75312;BME280;63906;55.686;37.532;2022-11-02T01:05:57;99267.03;;;3.21;68.30
75312;BME280;63906;55.686;37.532;2022-11-02T01:11:19;99281.59;;;3.32;68.13
75312;BME280;63906;55.686;37.532;2022-11-02T01:16:39;99285.22;;;3.21;67.68
75312;BME280;63906;55.686;37.532;2022-11-02T01:21:58;99267.50;;;3.17;68.45
75312;BME280;63906;55.686;37.532;2022-11-02T01:27:17;99289.22;;;3.34;67.12
75312;BME280;63906;55.686;37.532;2022-11-02T01:32:36;99294.44;;;3.34;67.97
75312;BME280;63906;55.686;37.532;2022-11-02T01:37:55;99266.66;;;3.16;68.27
75312;BME280;63906;55.686;37.532;2022-11-02T01:48:59;99254.88;;;3.04;68.82
75312;BME280;63906;55.686;37.532;2022-11-02T01:54:23;99274.72;;;3.05;68.77
75312;BME280;63906;55.686;37.532;2022-11-02T02:05:07;99280.94;;;3.12;68.34
75312;BME280;63906;55.686;37.532;2022-11-02T02:10:27;99249.94;;;2.93;68.64
75312;BME280;63906;55.686;37.532;2022-11-02T02:16:10;99286.00;;;3.14;68.78
75312;BME280;63906;55.686;37.532;2022-11-02T02:32:54;99280.72;;;3.23;69.83
75312;BME280;63906;55.686;37.532;2022-11-02T02:38:22;99270.56;;;3.12;69.61
75312;BME280;63906;55.686;37.532;2022-11-02T02:43:46;99258.16;;;3.06;70.12
75312;BME280;63906;55.686;37.532;2022-11-02T02:49:11;99271.88;;;3.16;70.12
75312;BME280;63906;55.686;37.532;2022-11-02T02:54:42;99288.38;;;3.25;69.85
75312;BME280;63906;55.686;37.532;2022-11-02T03:00:04;99262.97;;;3.01;69.75
75312;BME280;63906;55.686;37.532;2022-11-02T03:05:33;99257.34;;;3.06;70.04
75312;BME280;63906;55.686;37.532;2022-11-02T03:11:04;99279.38;;;3.19;68.83
75312;BME280;63906;55.686;37.532;2022-11-02T03:39:14;99267.09;;;2.86;69.86
75312;BME280;63906;55.686;37.532;2022-11-02T03:44:37;99262.38;;;2.72;70.29
75312;BME280;63906;55.686;37.532;2022-11-02T03:49:59;99262.69;;;2.68;71.09
75312;BME280;63906;55.686;37.532;2022-11-02T03:55:24;99254.53;;;2.63;71.67
75312;BME280;63906;55.686;37.532;2022-11-02T04:00:51;99270.34;;;2.70;71.71
75312;BME280;63906;55.686;37.532;2022-11-02T04:06:12;99268.13;;;2.75;71.55
75312;BME280;63906;55.686;37.532;2022-11-02T04:11:32;99252.59;;;2.65;72.06
75312;BME280;63906;55.686;37.532;2022-11-02T04:16:51;99246.13;;;2.69;72.03
75312;BME280;63906;55.686;37.532;2022-11-02T04:22:10;99259.03;;;2.79;72.33
75312;BME280;63906;55.686;37.532;2022-11-02T04:27:31;99276.19;;;2.90;71.99
75312;BME280;63906;55.686;37.532;2022-11-02T04:32:51;99265.25;;;3.04;72.11
75312;BME280;63906;55.686;37.532;2022-11-02T04:38:10;99276.94;;;3.00;72.29
75312;BME280;63906;55.686;37.532;2022-11-02T04:43:30;99253.03;;;2.79;72.78
75312;BME280;63906;55.686;37.532;2022-11-02T04:48:49;99236.72;;;2.68;73.11
75312;BME280;63906;55.686;37.532;2022-11-02T04:54:09;99262.84;;;2.85;73.20
75312;BME280;63906;55.686;37.532;2022-11-02T04:59:28;99239.91;;;2.80;73.62
75312;BME280;63906;55.686;37.532;2022-11-02T05:04:47;99260.53;;;3.00;73.57
75312;BME280;63906;55.686;37.532;2022-11-02T05:10:07;99237.66;;;2.85;73.93
75312;BME280;63906;55.686;37.532;2022-11-02T05:15:26;99256.16;;;3.00;73.50
75312;BME280;63906;55.686;37.532;2022-11-02T05:20:53;99264.31;;;3.05;73.91
75312;BME280;63906;55.686;37.532;2022-11-02T05:26:12;99230.22;;;2.90;73.95
75312;BME280;63906;55.686;37.532;2022-11-02T05:31:31;99239.63;;;3.09;73.33
75312;BME280;63906;55.686;37.532;2022-11-02T05:36:50;99239.84;;;3.16;73.04
75312;BME280;63906;55.686;37.532;2022-11-02T05:42:10;99251.78;;;3.27;72.41
75312;BME280;63906;55.686;37.532;2022-11-02T05:47:29;99252.19;;;3.40;72.93
75312;BME280;63906;55.686;37.532;2022-11-02T05:52:48;99250.06;;;3.35;72.63
75312;BME280;63906;55.686;37.532;2022-11-02T05:58:08;99246.97;;;3.32;71.98
75312;BME280;63906;55.686;37.532;2022-11-02T06:03:27;99246.63;;;3.35;72.85
75312;BME280;63906;55.686;37.532;2022-11-02T06:08:47;99240.38;;;3.45;72.01
75312;BME280;63906;55.686;37.532;2022-11-02T06:14:06;99265.19;;;3.66;71.46
75312;BME280;63906;55.686;37.532;2022-11-02T06:19:25;99235.94;;;3.72;71.74
75312;BME280;63906;55.686;37.532;2022-11-02T06:24:44;99256.25;;;3.94;71.64
75312;BME280;63906;55.686;37.532;2022-11-02T06:30:04;99247.97;;;3.99;70.21
75312;BME280;63906;55.686;37.532;2022-11-02T06:35:23;99257.41;;;4.00;69.48
75312;BME280;63906;55.686;37.532;2022-11-02T06:40:47;99257.75;;;4.05;69.57
75312;BME280;63906;55.686;37.532;2022-11-02T06:46:10;99266.38;;;4.05;70.66
75312;BME280;63906;55.686;37.532;2022-11-02T06:51:29;99265.22;;;4.00;69.97
75312;BME280;63906;55.686;37.532;2022-11-02T06:56:48;99235.03;;;3.81;69.67
75312;BME280;63906;55.686;37.532;2022-11-02T07:02:08;99257.41;;;4.00;70.20
75312;BME280;63906;55.686;37.532;2022-11-02T07:07:27;99264.78;;;4.13;69.71
75312;BME280;63906;55.686;37.532;2022-11-02T07:12:47;99242.69;;;3.83;70.44
75312;BME280;63906;55.686;37.532;2022-11-02T07:18:09;99266.50;;;3.96;70.04
75312;BME280;63906;55.686;37.532;2022-11-02T07:23:29;99269.81;;;4.06;69.96
75312;BME280;63906;55.686;37.532;2022-11-02T07:28:48;99255.81;;;4.07;69.17
75312;BME280;63906;55.686;37.532;2022-11-02T07:34:07;99255.28;;;4.03;69.38
75312;BME280;63906;55.686;37.532;2022-11-02T07:39:26;99290.38;;;4.25;69.56
75312;BME280;63906;55.686;37.532;2022-11-02T07:44:46;99261.72;;;4.17;70.01
75312;BME280;63906;55.686;37.532;2022-11-02T07:50:05;99299.56;;;4.38;69.29
75312;BME280;63906;55.686;37.532;2022-11-02T07:55:27;99267.22;;;4.14;68.40
75312;BME280;63906;55.686;37.532;2022-11-02T08:00:47;99283.56;;;4.32;68.91
75312;BME280;63906;55.686;37.532;2022-11-02T08:06:06;99293.34;;;4.30;69.04
75312;BME280;63906;55.686;37.532;2022-11-02T08:11:25;99274.75;;;4.17;68.21
75312;BME280;63906;55.686;37.532;2022-11-02T08:16:44;99253.09;;;4.17;68.62
75312;BME280;63906;55.686;37.532;2022-11-02T08:22:04;99272.50;;;4.30;68.52
75312;BME280;63906;55.686;37.532;2022-11-02T08:27:23;99260.47;;;4.38;68.56
75312;BME280;63906;55.686;37.532;2022-11-02T08:32:42;99269.31;;;4.61;68.83
75312;BME280;63906;55.686;37.532;2022-11-02T08:38:02;99247.78;;;4.51;68.03
75312;BME280;63906;55.686;37.532;2022-11-02T08:43:21;99267.69;;;4.68;68.85
75312;BME280;63906;55.686;37.532;2022-11-02T08:48:40;99269.97;;;4.71;69.07
75312;BME280;63906;55.686;37.532;2022-11-02T08:54:00;99249.13;;;4.55;68.92
75312;BME280;63906;55.686;37.532;2022-11-02T08:59:19;99282.31;;;4.53;68.03
75312;BME280;63906;55.686;37.532;2022-11-02T09:04:38;99263.38;;;4.35;68.19
75312;BME280;63906;55.686;37.532;2022-11-02T09:09:57;99277.25;;;4.43;69.05
75312;BME280;63906;55.686;37.532;2022-11-02T09:15:17;99277.09;;;4.53;68.94
75312;BME280;63906;55.686;37.532;2022-11-02T09:20:36;99276.34;;;4.69;67.76
75312;BME280;63906;55.686;37.532;2022-11-02T09:25:56;99270.13;;;4.62;67.66
75312;BME280;63906;55.686;37.532;2022-11-02T09:31:15;99261.50;;;4.77;67.00
75312;BME280;63906;55.686;37.532;2022-11-02T09:36:35;99241.63;;;4.76;67.13
75312;BME280;63906;55.686;37.532;2022-11-02T09:42:13;99249.44;;;4.76;67.63
75312;BME280;63906;55.686;37.532;2022-11-02T09:47:43;99244.91;;;4.86;66.31
75312;BME280;63906;55.686;37.532;2022-11-02T09:53:06;99241.63;;;4.76;65.81
75312;BME280;63906;55.686;37.532;2022-11-02T09:58:38;99256.97;;;4.96;65.23
75312;BME280;63906;55.686;37.532;2022-11-02T10:21:11;99241.59;;;4.44;66.50
75312;BME280;63906;55.686;37.532;2022-11-02T10:26:36;99258.09;;;4.61;65.77
75312;BME280;63906;55.686;37.532;2022-11-02T10:31:55;99248.31;;;4.63;65.34
75312;BME280;63906;55.686;37.532;2022-11-02T10:37:24;99275.88;;;4.98;65.72
75312;BME280;63906;55.686;37.532;2022-11-02T10:53:47;99271.78;;;4.95;64.89
75312;BME280;63906;55.686;37.532;2022-11-02T10:59:20;99252.09;;;4.93;66.14
75312;BME280;63906;55.686;37.532;2022-11-02T11:04:40;99271.78;;;4.95;65.31
75312;BME280;63906;55.686;37.532;2022-11-02T11:10:00;99279.13;;;5.00;65.13
75312;BME280;63906;55.686;37.532;2022-11-02T11:15:24;99255.16;;;4.80;65.17
75312;BME280;63906;55.686;37.532;2022-11-02T11:20:45;99270.66;;;4.98;65.63
75312;BME280;63906;55.686;37.532;2022-11-02T11:26:26;99279.44;;;4.80;65.72
75312;BME280;63906;55.686;37.532;2022-11-02T11:31:45;99292.50;;;4.89;65.95
75312;BME280;63906;55.686;37.532;2022-11-02T11:37:14;99277.97;;;4.70;63.63
75312;BME280;63906;55.686;37.532;2022-11-02T11:42:35;99261.81;;;4.50;63.96
75312;BME280;63906;55.686;37.532;2022-11-02T11:47:58;99257.84;;;4.38;63.67
75312;BME280;63906;55.686;37.532;2022-11-02T11:58:58;99247.38;;;4.21;63.07
75312;BME280;63906;55.686;37.532;2022-11-02T12:21:03;99296.47;;;4.42;62.94
75312;BME280;63906;55.686;37.532;2022-11-02T12:43:18;99313.19;;;3.97;61.78
75312;BME280;63906;55.686;37.532;2022-11-02T12:54:20;99308.72;;;3.30;62.71
75312;BME280;63906;55.686;37.532;2022-11-02T12:59:40;99308.28;;;3.16;63.13
75312;BME280;63906;55.686;37.532;2022-11-02T13:05:16;99312.38;;;3.01;63.61
75312;BME280;63906;55.686;37.532;2022-11-02T13:16:08;99318.59;;;2.90;64.13
75312;BME280;63906;55.686;37.532;2022-11-02T13:21:37;99331.81;;;2.79;63.99
75312;BME280;63906;55.686;37.532;2022-11-02T13:27:02;99322.19;;;2.44;64.56
75312;BME280;63906;55.686;37.532;2022-11-02T13:32:45;99315.41;;;2.06;65.36
75312;BME280;63906;55.686;37.532;2022-11-02T13:38:26;99326.47;;;2.08;65.69
75312;BME280;63906;55.686;37.532;2022-11-02T13:49:54;99347.56;;;2.23;65.98
75312;BME280;63906;55.686;37.532;2022-11-02T13:54:57;99339.28;;;2.19;65.58
75312;BME280;63906;55.686;37.532;2022-11-02T14:05:47;99328.72;;;1.83;67.33
75312;BME280;63906;55.686;37.532;2022-11-02T14:32:48;99342.88;;;1.99;68.01
75312;BME280;63906;55.686;37.532;2022-11-02T14:55:20;99350.06;;;1.68;68.24
75312;BME280;63906;55.686;37.532;2022-11-02T15:06:21;99355.72;;;1.34;68.58
75312;BME280;63906;55.686;37.532;2022-11-02T15:17:01;99362.91;;;0.82;69.85
75312;BME280;63906;55.686;37.532;2022-11-02T15:27:50;99355.16;;;0.82;69.47
75312;BME280;63906;55.686;37.532;2022-11-02T15:33:19;99341.47;;;0.61;69.96
75312;BME280;63906;55.686;37.532;2022-11-02T15:38:45;99354.97;;;0.64;69.86
75312;BME280;63906;55.686;37.532;2022-11-02T15:49:20;99369.03;;;0.71;69.73
75312;BME280;63906;55.686;37.532;2022-11-02T16:05:01;99358.13;;;0.77;69.41
75312;BME280;63906;55.686;37.532;2022-11-02T16:10:11;99358.56;;;0.83;69.14
75312;BME280;63906;55.686;37.532;2022-11-02T16:15:17;99362.13;;;1.01;69.54
75312;BME280;63906;55.686;37.532;2022-11-02T16:20:33;99373.44;;;1.10;69.19
75312;BME280;63906;55.686;37.532;2022-11-02T16:25:39;99383.00;;;1.09;69.52
75312;BME280;63906;55.686;37.532;2022-11-02T16:30:41;99382.03;;;1.10;69.31
75312;BME280;63906;55.686;37.532;2022-11-02T16:35:41;99375.25;;;1.19;69.37
75312;BME280;63906;55.686;37.532;2022-11-02T16:40:43;99383.69;;;1.21;69.48
75312;BME280;63906;55.686;37.532;2022-11-02T16:45:44;99367.84;;;1.14;69.29
75312;BME280;63906;55.686;37.532;2022-11-02T16:51:13;99383.13;;;1.37;69.20
75312;BME280;63906;55.686;37.532;2022-11-02T16:56:25;99395.97;;;1.38;68.19
75312;BME280;63906;55.686;37.532;2022-11-02T17:01:33;99379.97;;;1.43;67.77
75312;BME280;63906;55.686;37.532;2022-11-02T17:06:39;99362.41;;;1.27;68.09
75312;BME280;63906;55.686;37.532;2022-11-02T17:11:41;99377.00;;;1.28;68.41
75312;BME280;63906;55.686;37.532;2022-11-02T17:17:04;99357.47;;;1.24;67.72
75312;BME280;63906;55.686;37.532;2022-11-02T17:27:25;99386.84;;;1.24;68.76
75312;BME280;63906;55.686;37.532;2022-11-02T17:32:26;99375.50;;;1.16;68.96
75312;BME280;63906;55.686;37.532;2022-11-02T17:37:29;99368.38;;;1.18;68.24
75312;BME280;63906;55.686;37.532;2022-11-02T17:42:31;99375.09;;;1.20;68.66
75312;BME280;63906;55.686;37.532;2022-11-02T17:47:51;99406.47;;;1.27;67.35
75312;BME280;63906;55.686;37.532;2022-11-02T17:52:51;99385.84;;;0.96;68.10
75312;BME280;63906;55.686;37.532;2022-11-02T17:57:53;99397.06;;;1.06;68.53
75312;BME280;63906;55.686;37.532;2022-11-02T18:02:55;99399.50;;;1.18;68.23
75312;BME280;63906;55.686;37.532;2022-11-02T18:07:57;99392.13;;;1.03;68.39
75312;BME280;63906;55.686;37.532;2022-11-02T18:12:58;99385.56;;;0.90;68.89
75312;BME280;63906;55.686;37.532;2022-11-02T18:17:59;99387.75;;;0.94;69.10
75312;BME280;63906;55.686;37.532;2022-11-02T18:23:00;99414.22;;;1.17;69.00
75312;BME280;63906;55.686;37.532;2022-11-02T18:28:01;99410.44;;;1.21;69.02
75312;BME280;63906;55.686;37.532;2022-11-02T18:33:02;99392.53;;;1.08;68.60
75312;BME280;63906;55.686;37.532;2022-11-02T18:38:02;99414.50;;;1.24;69.03
75312;BME280;63906;55.686;37.532;2022-11-02T18:43:03;99407.44;;;1.26;68.76
75312;BME280;63906;55.686;37.532;2022-11-02T18:48:03;99406.06;;;1.22;68.38
75312;BME280;63906;55.686;37.532;2022-11-02T18:53:04;99409.06;;;1.07;69.47
75312;BME280;63906;55.686;37.532;2022-11-02T18:58:05;99382.97;;;0.99;69.26
75312;BME280;63906;55.686;37.532;2022-11-02T19:03:05;99401.41;;;1.16;69.40
75312;BME280;63906;55.686;37.532;2022-11-02T19:08:08;99403.31;;;1.23;68.89
75312;BME280;63906;55.686;37.532;2022-11-02T19:13:27;99422.44;;;1.32;68.68
75312;BME280;63906;55.686;37.532;2022-11-02T19:18:28;99403.22;;;1.25;67.95
75312;BME280;63906;55.686;37.532;2022-11-02T19:23:28;99411.38;;;1.11;68.67
75312;BME280;63906;55.686;37.532;2022-11-02T19:28:29;99404.81;;;1.06;68.71
75312;BME280;63906;55.686;37.532;2022-11-02T19:33:30;99426.38;;;1.17;68.75
75312;BME280;63906;55.686;37.532;2022-11-02T19:38:35;99400.19;;;1.00;68.03
75312;BME280;63906;55.686;37.532;2022-11-02T19:43:37;99429.63;;;0.90;68.28
75312;BME280;63906;55.686;37.532;2022-11-02T19:48:39;99420.78;;;0.62;69.36
75312;BME280;63906;55.686;37.532;2022-11-02T19:53:42;99412.78;;;0.65;69.55
75312;BME280;63906;55.686;37.532;2022-11-02T19:58:45;99423.72;;;0.78;69.44
75312;BME280;63906;55.686;37.532;2022-11-02T20:03:46;99435.41;;;0.72;69.25
75312;BME280;63906;55.686;37.532;2022-11-02T20:08:55;99390.66;;;0.51;69.49
75312;BME280;63906;55.686;37.532;2022-11-02T20:14:00;99419.63;;;0.75;69.60
75312;BME280;63906;55.686;37.532;2022-11-02T20:19:01;99437.91;;;0.84;70.04
75312;BME280;63906;55.686;37.532;2022-11-02T20:24:02;99398.06;;;0.65;69.65
75312;BME280;63906;55.686;37.532;2022-11-02T20:29:04;99411.44;;;0.80;69.34
75312;BME280;63906;55.686;37.532;2022-11-02T20:34:06;99443.94;;;0.94;69.55
75312;BME280;63906;55.686;37.532;2022-11-02T20:39:07;99413.31;;;0.68;69.86
75312;BME280;63906;55.686;37.532;2022-11-02T20:44:10;99425.19;;;0.71;69.88
75312;BME280;63906;55.686;37.532;2022-11-02T20:49:10;99427.50;;;0.74;69.56
75312;BME280;63906;55.686;37.532;2022-11-02T20:54:11;99450.47;;;0.88;70.11
75312;BME280;63906;55.686;37.532;2022-11-02T20:59:13;99421.94;;;0.69;70.31
75312;BME280;63906;55.686;37.532;2022-11-02T21:04:14;99437.75;;;0.75;70.02
75312;BME280;63906;55.686;37.532;2022-11-02T21:09:15;99421.50;;;0.73;70.58
75312;BME280;63906;55.686;37.532;2022-11-02T21:14:15;99424.66;;;0.77;70.12
75312;BME280;63906;55.686;37.532;2022-11-02T21:19:16;99439.69;;;0.93;69.62
75312;BME280;63906;55.686;37.532;2022-11-02T21:24:16;99429.81;;;0.67;70.21
75312;BME280;63906;55.686;37.532;2022-11-02T21:29:17;99446.06;;;0.69;69.78
75312;BME280;63906;55.686;37.532;2022-11-02T21:34:18;99450.06;;;0.52;69.49
75312;BME280;63906;55.686;37.532;2022-11-02T21:39:18;99455.69;;;0.58;70.46
75312;BME280;63906;55.686;37.532;2022-11-02T21:44:19;99423.50;;;0.50;69.84
75312;BME280;63906;55.686;37.532;2022-11-02T21:49:19;99458.28;;;0.67;70.36
75312;BME280;63906;55.686;37.532;2022-11-02T21:54:20;99466.38;;;0.74;69.69
75312;BME280;63906;55.686;37.532;2022-11-02T21:59:20;99428.31;;;0.65;70.38
75312;BME280;63906;55.686;37.532;2022-11-02T22:04:25;99447.94;;;0.67;69.51
75312;BME280;63906;55.686;37.532;2022-11-02T22:09:30;99465.25;;;0.67;69.52
75312;BME280;63906;55.686;37.532;2022-11-02T22:14:31;99463.75;;;0.64;69.96
75312;BME280;63906;55.686;37.532;2022-11-02T22:19:32;99455.31;;;0.72;69.05
75312;BME280;63906;55.686;37.532;2022-11-02T22:24:32;99456.34;;;0.50;69.82
75312;BME280;63906;55.686;37.532;2022-11-02T22:29:33;99455.50;;;0.49;70.22
75312;BME280;63906;55.686;37.532;2022-11-02T22:34:35;99438.09;;;0.51;70.12
75312;BME280;63906;55.686;37.532;2022-11-02T22:39:35;99460.22;;;0.65;69.58
75312;BME280;63906;55.686;37.532;2022-11-02T22:44:36;99461.25;;;0.53;69.78
75312;BME280;63906;55.686;37.532;2022-11-02T22:49:36;99454.38;;;0.42;70.22
75312;BME280;63906;55.686;37.532;2022-11-02T22:54:37;99466.47;;;0.63;69.60
75312;BME280;63906;55.686;37.532;2022-11-02T22:59:37;99459.03;;;0.48;69.71
75312;BME280;63906;55.686;37.532;2022-11-02T23:04:38;99464.19;;;0.39;70.16
75312;BME280;63906;55.686;37.532;2022-11-02T23:09:38;99452.13;;;0.28;70.71
75312;BME280;63906;55.686;37.532;2022-11-02T23:14:39;99436.59;;;0.28;70.68
75312;BME280;63906;55.686;37.532;2022-11-02T23:19:40;99463.75;;;0.34;70.54
75312;BME280;63906;55.686;37.532;2022-11-02T23:24:53;99478.25;;;0.46;71.06
75312;BME280;63906;55.686;37.532;2022-11-02T23:30:16;99461.81;;;0.57;70.52
75312;BME280;63906;55.686;37.532;2022-11-02T23:35:35;99465.34;;;0.56;70.76
75312;BME280;63906;55.686;37.532;2022-11-02T23:40:54;99470.84;;;0.62;69.97
75312;BME280;63906;55.686;37.532;2022-11-02T23:45:56;99444.66;;;0.35;69.77
75312;BME280;63906;55.686;37.532;2022-11-02T23:50:57;99473.47;;;0.41;70.80
75312;BME280;63906;55.686;37.532;2022-11-02T23:56:16;99478.13;;;0.47;70.70
